sensor_id;sensor_type;location;lat;lon;timestamp;temperature;humidity
16066;DHT22;8137;48.952;8.970;2023-06-14T00:01:24;13.20;99.90
16066;DHT22;8137;48.952;8.970;2023-06-14T00:03:50;13.10;99.90
16066;DHT22;8137;48.952;8.970;2023-06-14T00:06:16;13.10;99.90
16066;DHT22;8137;48.952;8.970;2023-06-14T00:08:42;13.10;99.90
16066;DHT22;8137;48.952;8.970;2023-06-14T00:11:08;13.00;99.90
16066;DHT22;8137;48.952;8.970;2023-06-14T00:13:33;13.00;99.90
16066;DHT22;8137;48.952;8.970;2023-06-14T00:15:59;12.90;99.90
16066;DHT22;8137;48.952;8.970;2023-06-14T00:18:24;12.90;99.90
16066;DHT22;8137;48.952;8.970;2023-06-14T00:20:52;12.90;99.90
16066;DHT22;8137;48.952;8.970;2023-06-14T00:23:18;12.90;99.90
16066;DHT22;8137;48.952;8.970;2023-06-14T00:25:43;12.80;99.90
16066;DHT22;8137;48.952;8.970;2023-06-14T00:28:09;12.90;99.90
16066;DHT22;8137;48.952;8.970;2023-06-14T00:30:35;12.80;99.90
16066;DHT22;8137;48.952;8.970;2023-06-14T00:33:01;12.80;99.90
16066;DHT22;8137;48.952;8.970;2023-06-14T00:35:27;12.90;99.90
16066;DHT22;8137;48.952;8.970;2023-06-14T00:37:53;12.90;99.90
16066;DHT22;8137;48.952;8.970;2023-06-14T00:40:20;12.80;99.90
16066;DHT22;8137;48.952;8.970;2023-06-14T00:42:46;12.80;99.90
16066;DHT22;8137;48.952;8.970;2023-06-14T00:45:12;12.70;99.90
16066;DHT22;8137;48.952;8.970;2023-06-14T00:47:38;12.60;99.90
16066;DHT22;8137;48.952;8.970;2023-06-14T00:50:07;12.50;99.90
16066;DHT22;8137;48.952;8.970;2023-06-14T00:52:33;12.50;99.90
16066;DHT22;8137;48.952;8.970;2023-06-14T00:55:00;12.40;99.90
16066;DHT22;8137;48.952;8.970;2023-06-14T00:57:27;12.40;99.90
16066;DHT22;8137;48.952;8.970;2023-06-14T00:59:52;12.30;99.90
16066;DHT22;8137;48.952;8.970;2023-06-14T01:02:19;12.30;99.90
16066;DHT22;8137;48.952;8.970;2023-06-14T01:04:47;12.20;99.90
16066;DHT22;8137;48.952;8.970;2023-06-14T01:10:55;12.10;99.90
16066;DHT22;8137;48.952;8.970;2023-06-14T01:13:24;12.10;99.90
16066;DHT22;8137;48.952;8.970;2023-06-14T01:15:52;12.00;99.90
16066;DHT22;8137;48.952;8.970;2023-06-14T01:18:18;12.00;99.90
16066;DHT22;8137;48.952;8.970;2023-06-14T01:20:45;12.00;99.90
16066;DHT22;8137;48.952;8.970;2023-06-14T01:23:15;11.90;99.90
16066;DHT22;8137;48.952;8.970;2023-06-14T01:25:41;11.90;99.90
16066;DHT22;8137;48.952;8.970;2023-06-14T01:28:10;11.90;99.90
16066;DHT22;8137;48.952;8.970;2023-06-14T01:30:38;11.90;99.90
16066;DHT22;8137;48.952;8.970;2023-06-14T01:33:04;11.80;99.90
16066;DHT22;8137;48.952;8.970;2023-06-14T01:35:31;11.80;99.90
16066;DHT22;8137;48.952;8.970;2023-06-14T01:37:57;11.80;99.90
16066;DHT22;8137;48.952;8.970;2023-06-14T01:40:24;11.80;99.90
16066;DHT22;8137;48.952;8.970;2023-06-14T01:42:51;11.70;99.90
16066;DHT22;8137;48.952;8.970;2023-06-14T01:45:17;11.80;99.90
16066;DHT22;8137;48.952;8.970;2023-06-14T01:47:44;11.80;99.90
16066;DHT22;8137;48.952;8.970;2023-06-14T01:50:10;11.70;99.90
16066;DHT22;8137;48.952;8.970;2023-06-14T01:52:37;11.70;99.90
16066;DHT22;8137;48.952;8.970;2023-06-14T01:55:06;11.70;99.90
16066;DHT22;8137;48.952;8.970;2023-06-14T01:57:33;11.60;99.90
16066;DHT22;8137;48.952;8.970;2023-06-14T01:59:59;11.60;99.90
16066;DHT22;8137;48.952;8.970;2023-06-14T02:02:24;11.60;99.90
16066;DHT22;8137;48.952;8.970;2023-06-14T02:04:50;11.50;99.90
16066;DHT22;8137;48.952;8.970;2023-06-14T02:07:15;11.50;99.90
16066;DHT22;8137;48.952;8.970;2023-06-14T02:09:41;11.50;99.90
16066;DHT22;8137;48.952;8.970;2023-06-14T02:12:08;11.50;99.90
16066;DHT22;8137;48.952;8.970;2023-06-14T02:14:33;11.50;99.90
16066;DHT22;8137;48.952;8.970;2023-06-14T02:16:59;11.50;99.90
16066;DHT22;8137;48.952;8.970;2023-06-14T02:19:26;11.40;99.90
16066;DHT22;8137;48.952;8.970;2023-06-14T02:21:51;11.40;99.90
16066;DHT22;8137;48.952;8.970;2023-06-14T02:24:17;11.40;99.90
16066;DHT22;8137;48.952;8.970;2023-06-14T02:26:43;11.40;99.90
16066;DHT22;8137;48.952;8.970;2023-06-14T02:29:08;11.40;99.90
16066;DHT22;8137;48.952;8.970;2023-06-14T02:31:36;11.30;99.90
16066;DHT22;8137;48.952;8.970;2023-06-14T02:34:02;11.20;99.90
16066;DHT22;8137;48.952;8.970;2023-06-14T02:36:27;11.20;99.90
16066;DHT22;8137;48.952;8.970;2023-06-14T02:38:56;11.10;99.90
16066;DHT22;8137;48.952;8.970;2023-06-14T02:41:23;11.10;99.90
16066;DHT22;8137;48.952;8.970;2023-06-14T02:43:49;11.10;99.90
16066;DHT22;8137;48.952;8.970;2023-06-14T02:46:15;11.00;99.90
16066;DHT22;8137;48.952;8.970;2023-06-14T02:48:41;11.00;99.90
16066;DHT22;8137;48.952;8.970;2023-06-14T02:51:06;11.10;99.90
16066;DHT22;8137;48.952;8.970;2023-06-14T02:53:33;11.10;99.90
16066;DHT22;8137;48.952;8.970;2023-06-14T02:56:00;11.00;99.90
16066;DHT22;8137;48.952;8.970;2023-06-14T02:58:26;10.90;99.90
16066;DHT22;8137;48.952;8.970;2023-06-14T03:00:52;10.90;99.90
16066;DHT22;8137;48.952;8.970;2023-06-14T03:03:20;10.90;99.90
16066;DHT22;8137;48.952;8.970;2023-06-14T03:05:47;10.90;99.90
16066;DHT22;8137;48.952;8.970;2023-06-14T03:08:15;10.80;99.90
16066;DHT22;8137;48.952;8.970;2023-06-14T03:10:45;10.90;99.90
16066;DHT22;8137;48.952;8.970;2023-06-14T03:13:11;10.80;99.90
16066;DHT22;8137;48.952;8.970;2023-06-14T03:15:37;10.80;99.90
16066;DHT22;8137;48.952;8.970;2023-06-14T03:18:04;10.80;99.90
16066;DHT22;8137;48.952;8.970;2023-06-14T03:20:29;10.80;99.90
16066;DHT22;8137;48.952;8.970;2023-06-14T03:22:59;10.80;99.90
16066;DHT22;8137;48.952;8.970;2023-06-14T03:25:25;10.80;99.90
16066;DHT22;8137;48.952;8.970;2023-06-14T03:27:51;10.80;99.90
16066;DHT22;8137;48.952;8.970;2023-06-14T03:30:16;10.90;99.90
16066;DHT22;8137;48.952;8.970;2023-06-14T03:32:42;10.90;99.90
16066;DHT22;8137;48.952;8.970;2023-06-14T03:35:08;10.90;99.90
16066;DHT22;8137;48.952;8.970;2023-06-14T03:37:34;11.00;99.90
16066;DHT22;8137;48.952;8.970;2023-06-14T03:40:00;11.10;99.90
16066;DHT22;8137;48.952;8.970;2023-06-14T03:42:26;11.00;99.90
16066;DHT22;8137;48.952;8.970;2023-06-14T03:44:51;11.00;99.90
16066;DHT22;8137;48.952;8.970;2023-06-14T03:47:17;11.00;99.90
16066;DHT22;8137;48.952;8.970;2023-06-14T03:49:42;11.00;99.90
16066;DHT22;8137;48.952;8.970;2023-06-14T03:52:08;11.00;99.90
16066;DHT22;8137;48.952;8.970;2023-06-14T03:54:34;11.00;99.90
16066;DHT22;8137;48.952;8.970;2023-06-14T03:56:59;11.00;99.90
16066;DHT22;8137;48.952;8.970;2023-06-14T03:59:26;11.10;99.90
16066;DHT22;8137;48.952;8.970;2023-06-14T04:01:53;11.20;99.90
16066;DHT22;8137;48.952;8.970;2023-06-14T04:04:19;11.20;99.90
16066;DHT22;8137;48.952;8.970;2023-06-14T04:06:44;11.30;99.90
16066;DHT22;8137;48.952;8.970;2023-06-14T04:09:13;11.40;99.90
16066;DHT22;8137;48.952;8.970;2023-06-14T04:11:39;11.40;99.90
16066;DHT22;8137;48.952;8.970;2023-06-14T04:14:05;11.50;99.90
16066;DHT22;8137;48.952;8.970;2023-06-14T04:16:31;11.60;99.90
16066;DHT22;8137;48.952;8.970;2023-06-14T04:18:57;11.70;99.90
16066;DHT22;8137;48.952;8.970;2023-06-14T04:21:23;11.70;99.90
16066;DHT22;8137;48.952;8.970;2023-06-14T04:23:49;11.80;99.90
16066;DHT22;8137;48.952;8.970;2023-06-14T04:26:18;11.90;99.90
16066;DHT22;8137;48.952;8.970;2023-06-14T04:28:45;12.00;99.90
16066;DHT22;8137;48.952;8.970;2023-06-14T04:31:12;12.10;99.90
16066;DHT22;8137;48.952;8.970;2023-06-14T04:33:38;12.20;99.90
16066;DHT22;8137;48.952;8.970;2023-06-14T04:36:11;12.30;99.90
16066;DHT22;8137;48.952;8.970;2023-06-14T04:38:39;12.50;99.90
16066;DHT22;8137;48.952;8.970;2023-06-14T04:41:05;12.60;99.90
16066;DHT22;8137;48.952;8.970;2023-06-14T04:43:31;12.80;99.90
16066;DHT22;8137;48.952;8.970;2023-06-14T04:46:04;13.00;99.90
16066;DHT22;8137;48.952;8.970;2023-06-14T04:48:31;13.10;99.90
16066;DHT22;8137;48.952;8.970;2023-06-14T04:50:57;13.20;99.90
16066;DHT22;8137;48.952;8.970;2023-06-14T04:53:23;13.30;99.90
16066;DHT22;8137;48.952;8.970;2023-06-14T04:55:49;13.50;99.90
16066;DHT22;8137;48.952;8.970;2023-06-14T04:58:16;13.70;99.90
16066;DHT22;8137;48.952;8.970;2023-06-14T05:00:41;13.80;99.90
16066;DHT22;8137;48.952;8.970;2023-06-14T05:03:09;14.00;99.90
16066;DHT22;8137;48.952;8.970;2023-06-14T05:05:34;14.00;99.90
16066;DHT22;8137;48.952;8.970;2023-06-14T05:08:00;14.10;99.90
16066;DHT22;8137;48.952;8.970;2023-06-14T05:10:25;14.20;99.90
16066;DHT22;8137;48.952;8.970;2023-06-14T05:12:51;14.30;99.90
16066;DHT22;8137;48.952;8.970;2023-06-14T05:15:18;14.40;99.90
16066;DHT22;8137;48.952;8.970;2023-06-14T05:17:45;14.50;99.90
16066;DHT22;8137;48.952;8.970;2023-06-14T05:20:18;14.60;99.90
16066;DHT22;8137;48.952;8.970;2023-06-14T05:22:44;14.70;99.90
16066;DHT22;8137;48.952;8.970;2023-06-14T05:25:09;14.80;99.90
16066;DHT22;8137;48.952;8.970;2023-06-14T05:27:35;14.90;99.90
16066;DHT22;8137;48.952;8.970;2023-06-14T05:30:02;14.90;99.90
16066;DHT22;8137;48.952;8.970;2023-06-14T05:32:29;15.00;99.90
16066;DHT22;8137;48.952;8.970;2023-06-14T05:34:55;15.10;99.90
16066;DHT22;8137;48.952;8.970;2023-06-14T05:37:20;15.20;99.90
16066;DHT22;8137;48.952;8.970;2023-06-14T05:39:46;15.40;99.90
16066;DHT22;8137;48.952;8.970;2023-06-14T05:42:11;15.50;99.90
16066;DHT22;8137;48.952;8.970;2023-06-14T05:44:38;15.60;99.90
16066;DHT22;8137;48.952;8.970;2023-06-14T05:47:03;15.80;99.90
16066;DHT22;8137;48.952;8.970;2023-06-14T05:49:29;15.80;99.90
16066;DHT22;8137;48.952;8.970;2023-06-14T05:51:54;15.90;99.90
16066;DHT22;8137;48.952;8.970;2023-06-14T05:54:20;16.00;99.90
16066;DHT22;8137;48.952;8.970;2023-06-14T05:56:45;16.10;99.90
16066;DHT22;8137;48.952;8.970;2023-06-14T05:59:11;16.30;99.90
16066;DHT22;8137;48.952;8.970;2023-06-14T06:01:37;16.40;99.90
16066;DHT22;8137;48.952;8.970;2023-06-14T06:04:02;16.60;99.90
16066;DHT22;8137;48.952;8.970;2023-06-14T06:06:28;16.70;99.90
16066;DHT22;8137;48.952;8.970;2023-06-14T06:08:54;16.90;99.90
16066;DHT22;8137;48.952;8.970;2023-06-14T06:11:19;17.00;99.90
16066;DHT22;8137;48.952;8.970;2023-06-14T06:13:45;17.20;99.90
16066;DHT22;8137;48.952;8.970;2023-06-14T06:16:11;17.30;99.90
16066;DHT22;8137;48.952;8.970;2023-06-14T06:18:36;17.30;99.90
16066;DHT22;8137;48.952;8.970;2023-06-14T06:21:04;17.40;99.90
16066;DHT22;8137;48.952;8.970;2023-06-14T06:23:29;17.50;99.90
16066;DHT22;8137;48.952;8.970;2023-06-14T06:25:55;17.70;99.90
16066;DHT22;8137;48.952;8.970;2023-06-14T06:28:20;17.80;99.90
16066;DHT22;8137;48.952;8.970;2023-06-14T06:30:46;17.90;99.90
16066;DHT22;8137;48.952;8.970;2023-06-14T06:33:12;17.90;99.90
16066;DHT22;8137;48.952;8.970;2023-06-14T06:35:38;18.10;99.90
16066;DHT22;8137;48.952;8.970;2023-06-14T06:38:03;18.10;99.90
16066;DHT22;8137;48.952;8.970;2023-06-14T06:40:29;18.20;99.90
16066;DHT22;8137;48.952;8.970;2023-06-14T06:42:55;18.30;99.90
16066;DHT22;8137;48.952;8.970;2023-06-14T06:45:20;18.40;99.90
16066;DHT22;8137;48.952;8.970;2023-06-14T06:47:46;18.50;99.90
16066;DHT22;8137;48.952;8.970;2023-06-14T06:50:12;18.50;99.90
16066;DHT22;8137;48.952;8.970;2023-06-14T06:52:37;18.50;99.90
16066;DHT22;8137;48.952;8.970;2023-06-14T06:55:03;18.60;99.90
16066;DHT22;8137;48.952;8.970;2023-06-14T06:57:29;18.70;99.90
16066;DHT22;8137;48.952;8.970;2023-06-14T06:59:54;18.90;99.90
16066;DHT22;8137;48.952;8.970;2023-06-14T07:02:20;19.00;99.90
16066;DHT22;8137;48.952;8.970;2023-06-14T07:04:45;19.20;99.90
16066;DHT22;8137;48.952;8.970;2023-06-14T07:07:11;19.30;99.90
16066;DHT22;8137;48.952;8.970;2023-06-14T07:09:37;19.40;99.90
16066;DHT22;8137;48.952;8.970;2023-06-14T07:12:03;19.50;99.90
16066;DHT22;8137;48.952;8.970;2023-06-14T07:14:29;19.50;99.90
16066;DHT22;8137;48.952;8.970;2023-06-14T07:16:55;19.60;99.90
16066;DHT22;8137;48.952;8.970;2023-06-14T07:19:21;19.60;99.90
16066;DHT22;8137;48.952;8.970;2023-06-14T07:21:46;19.70;99.90
16066;DHT22;8137;48.952;8.970;2023-06-14T07:24:13;19.80;99.90
16066;DHT22;8137;48.952;8.970;2023-06-14T07:26:39;19.90;99.90
16066;DHT22;8137;48.952;8.970;2023-06-14T07:29:04;20.00;99.90
16066;DHT22;8137;48.952;8.970;2023-06-14T07:31:30;20.20;99.90
16066;DHT22;8137;48.952;8.970;2023-06-14T07:33:56;20.40;99.90
16066;DHT22;8137;48.952;8.970;2023-06-14T07:36:22;20.40;99.90
16066;DHT22;8137;48.952;8.970;2023-06-14T07:38:48;20.50;99.90
16066;DHT22;8137;48.952;8.970;2023-06-14T07:41:13;20.40;99.90
16066;DHT22;8137;48.952;8.970;2023-06-14T07:43:39;20.40;99.90
16066;DHT22;8137;48.952;8.970;2023-06-14T07:46:05;20.60;99.90
16066;DHT22;8137;48.952;8.970;2023-06-14T07:48:30;20.80;99.90
16066;DHT22;8137;48.952;8.970;2023-06-14T07:50:56;21.00;99.90
16066;DHT22;8137;48.952;8.970;2023-06-14T07:53:22;21.20;99.90
16066;DHT22;8137;48.952;8.970;2023-06-14T07:55:47;21.30;99.90
16066;DHT22;8137;48.952;8.970;2023-06-14T07:58:14;21.30;99.90
16066;DHT22;8137;48.952;8.970;2023-06-14T08:00:39;21.40;99.70
16066;DHT22;8137;48.952;8.970;2023-06-14T08:03:05;21.60;99.20
16066;DHT22;8137;48.952;8.970;2023-06-14T08:05:30;21.70;99.20
16066;DHT22;8137;48.952;8.970;2023-06-14T08:07:56;21.70;98.20
16066;DHT22;8137;48.952;8.970;2023-06-14T08:10:22;21.60;94.90
16066;DHT22;8137;48.952;8.970;2023-06-14T08:12:48;21.30;94.40
16066;DHT22;8137;48.952;8.970;2023-06-14T08:15:15;21.30;93.80
16066;DHT22;8137;48.952;8.970;2023-06-14T08:17:43;21.60;96.30
16066;DHT22;8137;48.952;8.970;2023-06-14T08:20:09;22.00;94.90
16066;DHT22;8137;48.952;8.970;2023-06-14T08:22:36;22.20;93.30
16066;DHT22;8137;48.952;8.970;2023-06-14T08:25:01;22.00;90.80
16066;DHT22;8137;48.952;8.970;2023-06-14T08:27:27;22.10;90.50
16066;DHT22;8137;48.952;8.970;2023-06-14T08:29:53;22.00;86.10
16066;DHT22;8137;48.952;8.970;2023-06-14T08:32:19;22.00;85.60
16066;DHT22;8137;48.952;8.970;2023-06-14T08:34:44;22.10;84.50
16066;DHT22;8137;48.952;8.970;2023-06-14T08:37:10;22.20;85.30
16066;DHT22;8137;48.952;8.970;2023-06-14T08:39:36;22.50;86.60
16066;DHT22;8137;48.952;8.970;2023-06-14T08:42:03;22.70;83.90
16066;DHT22;8137;48.952;8.970;2023-06-14T08:44:29;22.90;82.40
16066;DHT22;8137;48.952;8.970;2023-06-14T08:46:56;23.00;78.20
16066;DHT22;8137;48.952;8.970;2023-06-14T08:49:25;22.70;71.80
16066;DHT22;8137;48.952;8.970;2023-06-14T08:51:57;22.70;78.20
16066;DHT22;8137;48.952;8.970;2023-06-14T08:54:27;22.70;72.90
16066;DHT22;8137;48.952;8.970;2023-06-14T08:56:55;22.70;74.20
16066;DHT22;8137;48.952;8.970;2023-06-14T08:59:31;22.90;71.90
16066;DHT22;8137;48.952;8.970;2023-06-14T09:02:05;23.10;68.50
16066;DHT22;8137;48.952;8.970;2023-06-14T09:04:31;22.90;63.30
16066;DHT22;8137;48.952;8.970;2023-06-14T09:06:57;23.00;60.80
16066;DHT22;8137;48.952;8.970;2023-06-14T09:09:24;23.20;62.40
16066;DHT22;8137;48.952;8.970;2023-06-14T09:11:51;23.20;62.10
16066;DHT22;8137;48.952;8.970;2023-06-14T09:14:18;23.20;56.80
16066;DHT22;8137;48.952;8.970;2023-06-14T09:16:44;23.20;56.90
16066;DHT22;8137;48.952;8.970;2023-06-14T09:19:14;23.30;57.30
16066;DHT22;8137;48.952;8.970;2023-06-14T09:21:47;23.30;57.50
16066;DHT22;8137;48.952;8.970;2023-06-14T09:24:14;23.30;53.50
16066;DHT22;8137;48.952;8.970;2023-06-14T09:26:40;23.30;53.60
16066;DHT22;8137;48.952;8.970;2023-06-14T09:29:06;23.60;56.50
16066;DHT22;8137;48.952;8.970;2023-06-14T09:31:32;23.80;52.40
16066;DHT22;8137;48.952;8.970;2023-06-14T09:33:58;23.80;54.90
16066;DHT22;8137;48.952;8.970;2023-06-14T09:36:27;23.90;50.30
16066;DHT22;8137;48.952;8.970;2023-06-14T09:41:19;24.00;49.00
16066;DHT22;8137;48.952;8.970;2023-06-14T09:43:46;24.10;43.70
16066;DHT22;8137;48.952;8.970;2023-06-14T09:46:13;24.30;38.60
16066;DHT22;8137;48.952;8.970;2023-06-14T09:48:39;24.30;41.20
16066;DHT22;8137;48.952;8.970;2023-06-14T09:51:10;24.30;41.40
16066;DHT22;8137;48.952;8.970;2023-06-14T09:53:38;24.30;36.90
16066;DHT22;8137;48.952;8.970;2023-06-14T09:56:05;24.40;34.50
16066;DHT22;8137;48.952;8.970;2023-06-14T09:58:33;24.40;34.20
16066;DHT22;8137;48.952;8.970;2023-06-14T10:01:00;24.40;31.80
16066;DHT22;8137;48.952;8.970;2023-06-14T10:03:30;24.40;28.00
16066;DHT22;8137;48.952;8.970;2023-06-14T10:05:59;24.20;30.10
16066;DHT22;8137;48.952;8.970;2023-06-14T10:08:30;24.50;29.90
16066;DHT22;8137;48.952;8.970;2023-06-14T10:10:58;24.60;29.00
16066;DHT22;8137;48.952;8.970;2023-06-14T10:13:26;24.50;26.30
16066;DHT22;8137;48.952;8.970;2023-06-14T10:16:10;24.40;25.40
16066;DHT22;8137;48.952;8.970;2023-06-14T10:21:34;24.80;24.40
16066;DHT22;8137;48.952;8.970;2023-06-14T10:24:05;24.40;24.10
16066;DHT22;8137;48.952;8.970;2023-06-14T10:26:32;24.20;24.10
16066;DHT22;8137;48.952;8.970;2023-06-14T10:29:08;24.50;24.10
16066;DHT22;8137;48.952;8.970;2023-06-14T10:31:48;24.50;25.20
16066;DHT22;8137;48.952;8.970;2023-06-14T10:34:27;24.80;26.90
16066;DHT22;8137;48.952;8.970;2023-06-14T10:37:03;24.90;23.70
16066;DHT22;8137;48.952;8.970;2023-06-14T10:39:30;25.20;23.80
16066;DHT22;8137;48.952;8.970;2023-06-14T10:41:57;25.60;23.90
16066;DHT22;8137;48.952;8.970;2023-06-14T10:50:02;25.80;21.90
16066;DHT22;8137;48.952;8.970;2023-06-14T10:52:29;25.50;20.70
16066;DHT22;8137;48.952;8.970;2023-06-14T10:57:27;25.90;19.70
16066;DHT22;8137;48.952;8.970;2023-06-14T10:59:53;26.10;21.10
16066;DHT22;8137;48.952;8.970;2023-06-14T11:02:27;26.60;19.20
16066;DHT22;8137;48.952;8.970;2023-06-14T11:04:59;26.70;17.50
16066;DHT22;8137;48.952;8.970;2023-06-14T11:08:39;26.20;15.90
16066;DHT22;8137;48.952;8.970;2023-06-14T11:13:01;25.80;17.20
16066;DHT22;8137;48.952;8.970;2023-06-14T11:15:35;25.80;16.50
16066;DHT22;8137;48.952;8.970;2023-06-14T11:18:05;25.60;16.90
16066;DHT22;8137;48.952;8.970;2023-06-14T11:20:33;25.60;16.90
16066;DHT22;8137;48.952;8.970;2023-06-14T11:22:58;26.10;15.90
16066;DHT22;8137;48.952;8.970;2023-06-14T11:25:25;26.30;16.60
16066;DHT22;8137;48.952;8.970;2023-06-14T11:27:52;26.70;16.00
16066;DHT22;8137;48.952;8.970;2023-06-14T11:30:17;26.80;15.60
16066;DHT22;8137;48.952;8.970;2023-06-14T11:32:50;27.10;14.60
16066;DHT22;8137;48.952;8.970;2023-06-14T11:35:16;27.00;14.60
16066;DHT22;8137;48.952;8.970;2023-06-14T11:37:42;26.80;14.40
16066;DHT22;8137;48.952;8.970;2023-06-14T11:40:10;27.00;12.30
16066;DHT22;8137;48.952;8.970;2023-06-14T11:42:38;27.00;13.60
16066;DHT22;8137;48.952;8.970;2023-06-14T11:45:06;26.70;12.60
16066;DHT22;8137;48.952;8.970;2023-06-14T11:47:33;26.20;13.10
16066;DHT22;8137;48.952;8.970;2023-06-14T11:50:03;26.00;13.00
16066;DHT22;8137;48.952;8.970;2023-06-14T11:52:29;26.00;12.90
16066;DHT22;8137;48.952;8.970;2023-06-14T11:54:55;25.90;14.10
16066;DHT22;8137;48.952;8.970;2023-06-14T11:57:21;26.10;15.00
16066;DHT22;8137;48.952;8.970;2023-06-14T11:59:47;26.10;14.80
16066;DHT22;8137;48.952;8.970;2023-06-14T12:02:18;25.50;13.60
16066;DHT22;8137;48.952;8.970;2023-06-14T12:04:46;25.00;14.70
16066;DHT22;8137;48.952;8.970;2023-06-14T12:07:13;24.60;14.90
16066;DHT22;8137;48.952;8.970;2023-06-14T12:10:03;24.30;14.50
16066;DHT22;8137;48.952;8.970;2023-06-14T12:12:35;24.80;15.10
16066;DHT22;8137;48.952;8.970;2023-06-14T12:15:03;25.30;14.50
16066;DHT22;8137;48.952;8.970;2023-06-14T12:17:32;25.80;14.40
16066;DHT22;8137;48.952;8.970;2023-06-14T12:19:58;26.10;11.90
16066;DHT22;8137;48.952;8.970;2023-06-14T12:22:24;26.10;12.70
16066;DHT22;8137;48.952;8.970;2023-06-14T12:24:49;26.20;11.30
16066;DHT22;8137;48.952;8.970;2023-06-14T12:27:16;26.30;11.50
16066;DHT22;8137;48.952;8.970;2023-06-14T12:29:44;26.70;11.90
16066;DHT22;8137;48.952;8.970;2023-06-14T12:32:10;26.80;11.40
16066;DHT22;8137;48.952;8.970;2023-06-14T12:34:36;26.80;10.30
16066;DHT22;8137;48.952;8.970;2023-06-14T12:37:02;26.40;8.40
16066;DHT22;8137;48.952;8.970;2023-06-14T12:39:30;26.50;7.80
16066;DHT22;8137;48.952;8.970;2023-06-14T12:41:57;27.00;8.50
16066;DHT22;8137;48.952;8.970;2023-06-14T12:44:23;27.50;9.20
16066;DHT22;8137;48.952;8.970;2023-06-14T12:46:49;28.20;8.60
16066;DHT22;8137;48.952;8.970;2023-06-14T12:49:17;28.70;7.70
16066;DHT22;8137;48.952;8.970;2023-06-14T12:51:42;29.20;9.40
16066;DHT22;8137;48.952;8.970;2023-06-14T12:54:08;29.60;7.80
16066;DHT22;8137;48.952;8.970;2023-06-14T12:56:34;29.00;5.10
16066;DHT22;8137;48.952;8.970;2023-06-14T12:58:59;28.60;5.70
16066;DHT22;8137;48.952;8.970;2023-06-14T13:01:25;28.10;6.40
16066;DHT22;8137;48.952;8.970;2023-06-14T13:03:51;27.40;5.80
16066;DHT22;8137;48.952;8.970;2023-06-14T13:06:21;26.90;6.30
16066;DHT22;8137;48.952;8.970;2023-06-14T13:08:48;26.60;7.90
16066;DHT22;8137;48.952;8.970;2023-06-14T13:11:14;26.80;8.20
16066;DHT22;8137;48.952;8.970;2023-06-14T13:13:40;27.10;7.10
16066;DHT22;8137;48.952;8.970;2023-06-14T13:16:05;27.60;7.80
16066;DHT22;8137;48.952;8.970;2023-06-14T13:18:31;28.30;7.60
16066;DHT22;8137;48.952;8.970;2023-06-14T13:20:57;28.90;6.20
16066;DHT22;8137;48.952;8.970;2023-06-14T13:23:22;29.10;4.20
16066;DHT22;8137;48.952;8.970;2023-06-14T13:25:48;28.90;3.80
16066;DHT22;8137;48.952;8.970;2023-06-14T13:28:16;29.00;4.20
16066;DHT22;8137;48.952;8.970;2023-06-14T13:30:42;28.70;4.70
16066;DHT22;8137;48.952;8.970;2023-06-14T13:33:07;28.10;3.80
16066;DHT22;8137;48.952;8.970;2023-06-14T13:35:33;27.10;4.20
16066;DHT22;8137;48.952;8.970;2023-06-14T13:37:59;26.50;5.60
16066;DHT22;8137;48.952;8.970;2023-06-14T13:40:24;26.50;6.60
16066;DHT22;8137;48.952;8.970;2023-06-14T13:42:50;26.90;5.60
16066;DHT22;8137;48.952;8.970;2023-06-14T13:45:16;27.40;6.20
16066;DHT22;8137;48.952;8.970;2023-06-14T13:47:42;27.90;5.80
16066;DHT22;8137;48.952;8.970;2023-06-14T13:50:07;28.40;6.00
16066;DHT22;8137;48.952;8.970;2023-06-14T13:52:33;28.90;4.80
16066;DHT22;8137;48.952;8.970;2023-06-14T13:55:00;29.40;3.00
16066;DHT22;8137;48.952;8.970;2023-06-14T13:57:27;29.40;2.30
16066;DHT22;8137;48.952;8.970;2023-06-14T13:59:52;29.50;1.90
16066;DHT22;8137;48.952;8.970;2023-06-14T14:02:20;29.30;1.30
16066;DHT22;8137;48.952;8.970;2023-06-14T14:04:48;28.40;3.30
16066;DHT22;8137;48.952;8.970;2023-06-14T14:07:18;27.80;4.50
16066;DHT22;8137;48.952;8.970;2023-06-14T14:09:44;27.80;5.90
16066;DHT22;8137;48.952;8.970;2023-06-14T14:12:10;28.00;7.30
16066;DHT22;8137;48.952;8.970;2023-06-14T14:14:36;28.30;6.80
16066;DHT22;8137;48.952;8.970;2023-06-14T14:17:02;28.30;5.30
16066;DHT22;8137;48.952;8.970;2023-06-14T14:19:28;28.20;5.60
16066;DHT22;8137;48.952;8.970;2023-06-14T14:21:53;28.20;6.10
16066;DHT22;8137;48.952;8.970;2023-06-14T14:24:19;28.30;6.10
16066;DHT22;8137;48.952;8.970;2023-06-14T14:26:45;28.60;6.60
16066;DHT22;8137;48.952;8.970;2023-06-14T14:29:14;28.10;4.80
16066;DHT22;8137;48.952;8.970;2023-06-14T14:31:40;27.30;5.30
16066;DHT22;8137;48.952;8.970;2023-06-14T14:34:08;26.80;6.10
16066;DHT22;8137;48.952;8.970;2023-06-14T14:36:34;26.40;6.60
16066;DHT22;8137;48.952;8.970;2023-06-14T14:39:05;26.00;7.70
16066;DHT22;8137;48.952;8.970;2023-06-14T14:41:32;25.60;9.00
16066;DHT22;8137;48.952;8.970;2023-06-14T14:43:58;25.40;9.70
16066;DHT22;8137;48.952;8.970;2023-06-14T14:46:26;25.50;9.60
16066;DHT22;8137;48.952;8.970;2023-06-14T14:48:52;25.40;8.90
16066;DHT22;8137;48.952;8.970;2023-06-14T14:51:18;25.30;10.10
16066;DHT22;8137;48.952;8.970;2023-06-14T14:53:43;25.20;11.00
16066;DHT22;8137;48.952;8.970;2023-06-14T14:56:09;25.20;11.00
16066;DHT22;8137;48.952;8.970;2023-06-14T14:58:35;25.40;11.30
16066;DHT22;8137;48.952;8.970;2023-06-14T15:01:01;25.20;10.50
16066;DHT22;8137;48.952;8.970;2023-06-14T15:03:27;24.90;10.30
16066;DHT22;8137;48.952;8.970;2023-06-14T15:05:52;24.80;10.60
16066;DHT22;8137;48.952;8.970;2023-06-14T15:08:18;24.60;10.90
16066;DHT22;8137;48.952;8.970;2023-06-14T15:10:44;24.70;10.90
16066;DHT22;8137;48.952;8.970;2023-06-14T15:13:10;25.20;11.90
16066;DHT22;8137;48.952;8.970;2023-06-14T15:15:36;25.80;10.50
16066;DHT22;8137;48.952;8.970;2023-06-14T15:18:03;26.40;11.10
16066;DHT22;8137;48.952;8.970;2023-06-14T15:20:29;26.70;7.70
16066;DHT22;8137;48.952;8.970;2023-06-14T15:22:54;26.90;7.80
16066;DHT22;8137;48.952;8.970;2023-06-14T15:25:31;27.30;7.40
16066;DHT22;8137;48.952;8.970;2023-06-14T15:27:58;27.80;6.90
16066;DHT22;8137;48.952;8.970;2023-06-14T15:30:23;27.90;4.30
16066;DHT22;8137;48.952;8.970;2023-06-14T15:32:49;27.60;6.00
16066;DHT22;8137;48.952;8.970;2023-06-14T15:35:16;27.10;7.30
16066;DHT22;8137;48.952;8.970;2023-06-14T15:37:43;26.30;7.40
16066;DHT22;8137;48.952;8.970;2023-06-14T15:40:09;25.60;7.60
16066;DHT22;8137;48.952;8.970;2023-06-14T15:42:35;25.20;8.40
16066;DHT22;8137;48.952;8.970;2023-06-14T15:45:00;24.80;9.50
16066;DHT22;8137;48.952;8.970;2023-06-14T15:47:26;24.70;11.00
16066;DHT22;8137;48.952;8.970;2023-06-14T15:49:52;24.60;10.80
16066;DHT22;8137;48.952;8.970;2023-06-14T15:52:17;24.80;10.20
16066;DHT22;8137;48.952;8.970;2023-06-14T15:54:43;25.20;10.50
16066;DHT22;8137;48.952;8.970;2023-06-14T15:57:08;25.60;10.40
16066;DHT22;8137;48.952;8.970;2023-06-14T15:59:35;25.80;9.30
16066;DHT22;8137;48.952;8.970;2023-06-14T16:02:00;26.20;8.30
16066;DHT22;8137;48.952;8.970;2023-06-14T16:04:27;26.40;11.10
16066;DHT22;8137;48.952;8.970;2023-06-14T16:06:52;26.80;8.50